sensor_id;sensor_type;location;lat;lon;timestamp;temperature;humidity
51867;DHT22;52862;52.504;13.480;2023-03-01T00:01:27;0.60;99.90
51867;DHT22;52862;52.504;13.480;2023-03-01T00:03:54;0.60;99.90
51867;DHT22;52862;52.504;13.480;2023-03-01T00:06:21;0.40;99.90
51867;DHT22;52862;52.504;13.480;2023-03-01T00:08:49;0.20;99.90
51867;DHT22;52862;52.504;13.480;2023-03-01T00:11:17;0.50;99.90
51867;DHT22;52862;52.504;13.480;2023-03-01T00:13:46;0.30;99.90
51867;DHT22;52862;52.504;13.480;2023-03-01T00:16:15;0.30;99.90
51867;DHT22;52862;52.504;13.480;2023-03-01T00:18:42;0.60;99.90
51867;DHT22;52862;52.504;13.480;2023-03-01T00:21:09;0.30;99.90
51867;DHT22;52862;52.504;13.480;2023-03-01T00:23:37;0.50;99.90
51867;DHT22;52862;52.504;13.480;2023-03-01T00:26:06;0.50;99.90
51867;DHT22;52862;52.504;13.480;2023-03-01T00:28:33;0.40;99.90
51867;DHT22;52862;52.504;13.480;2023-03-01T00:31:03;0.30;99.90
51867;DHT22;52862;52.504;13.480;2023-03-01T00:33:30;0.50;99.90
51867;DHT22;52862;52.504;13.480;2023-03-01T00:35:58;-0.10;99.90
51867;DHT22;52862;52.504;13.480;2023-03-01T00:38:25;0.20;99.90
51867;DHT22;52862;52.504;13.480;2023-03-01T00:40:52;-0.10;99.90
51867;DHT22;52862;52.504;13.480;2023-03-01T00:43:19;0.10;99.90
51867;DHT22;52862;52.504;13.480;2023-03-01T00:45:46;0.20;99.90
51867;DHT22;52862;52.504;13.480;2023-03-01T00:50:39;0.30;99.90
51867;DHT22;52862;52.504;13.480;2023-03-01T00:53:07;0.20;99.90
51867;DHT22;52862;52.504;13.480;2023-03-01T00:55:33;0.30;99.90
51867;DHT22;52862;52.504;13.480;2023-03-01T01:00:29;-0.20;99.90
51867;DHT22;52862;52.504;13.480;2023-03-01T01:02:55;-0.10;99.90
51867;DHT22;52862;52.504;13.480;2023-03-01T01:05:22;0.00;99.90
51867;DHT22;52862;52.504;13.480;2023-03-01T01:07:49;0.00;99.90
51867;DHT22;52862;52.504;13.480;2023-03-01T01:10:16;-0.20;99.90
51867;DHT22;52862;52.504;13.480;2023-03-01T01:12:44;-0.10;99.90
51867;DHT22;52862;52.504;13.480;2023-03-01T01:15:11;-0.40;99.90
51867;DHT22;52862;52.504;13.480;2023-03-01T01:17:40;-0.80;99.90
51867;DHT22;52862;52.504;13.480;2023-03-01T01:20:08;0.10;99.90
51867;DHT22;52862;52.504;13.480;2023-03-01T01:22:35;0.00;99.90
51867;DHT22;52862;52.504;13.480;2023-03-01T01:25:02;-0.60;99.90
51867;DHT22;52862;52.504;13.480;2023-03-01T01:27:29;-0.10;99.90
51867;DHT22;52862;52.504;13.480;2023-03-01T01:29:56;-0.10;99.90
51867;DHT22;52862;52.504;13.480;2023-03-01T01:32:23;0.50;99.90
51867;DHT22;52862;52.504;13.480;2023-03-01T01:34:52;0.00;99.90
51867;DHT22;52862;52.504;13.480;2023-03-01T01:37:19;-0.20;99.90
51867;DHT22;52862;52.504;13.480;2023-03-01T01:42:15;0.20;99.90
51867;DHT22;52862;52.504;13.480;2023-03-01T01:44:46;-0.20;99.90
51867;DHT22;52862;52.504;13.480;2023-03-01T01:47:15;-0.10;99.90
51867;DHT22;52862;52.504;13.480;2023-03-01T01:49:46;-0.40;99.90
51867;DHT22;52862;52.504;13.480;2023-03-01T01:52:18;-0.20;99.90
51867;DHT22;52862;52.504;13.480;2023-03-01T01:54:49;-0.20;99.90
51867;DHT22;52862;52.504;13.480;2023-03-01T01:57:20;-0.40;99.90
51867;DHT22;52862;52.504;13.480;2023-03-01T01:59:51;-0.30;99.90
51867;DHT22;52862;52.504;13.480;2023-03-01T02:02:19;-0.30;99.90
51867;DHT22;52862;52.504;13.480;2023-03-01T02:04:46;-0.30;99.90
51867;DHT22;52862;52.504;13.480;2023-03-01T02:07:16;-0.10;99.90
51867;DHT22;52862;52.504;13.480;2023-03-01T02:09:46;-0.50;99.90
51867;DHT22;52862;52.504;13.480;2023-03-01T02:12:14;-0.60;99.90
51867;DHT22;52862;52.504;13.480;2023-03-01T02:14:41;0.10;99.90
51867;DHT22;52862;52.504;13.480;2023-03-01T02:17:08;-0.20;99.90
51867;DHT22;52862;52.504;13.480;2023-03-01T02:19:44;-0.40;99.90
51867;DHT22;52862;52.504;13.480;2023-03-01T02:22:19;-0.30;99.90
51867;DHT22;52862;52.504;13.480;2023-03-01T02:24:54;-0.10;99.90
51867;DHT22;52862;52.504;13.480;2023-03-01T02:27:29;-0.20;99.90
51867;DHT22;52862;52.504;13.480;2023-03-01T02:29:59;-0.40;99.90
51867;DHT22;52862;52.504;13.480;2023-03-01T02:32:26;-0.20;99.90
51867;DHT22;52862;52.504;13.480;2023-03-01T02:34:54;-0.50;99.90
51867;DHT22;52862;52.504;13.480;2023-03-01T02:37:22;-0.50;99.90
51867;DHT22;52862;52.504;13.480;2023-03-01T02:39:55;-0.50;99.90
51867;DHT22;52862;52.504;13.480;2023-03-01T02:42:26;-0.40;99.90
51867;DHT22;52862;52.504;13.480;2023-03-01T02:44:54;-0.30;99.90
51867;DHT22;52862;52.504;13.480;2023-03-01T02:47:21;-0.60;99.90
51867;DHT22;52862;52.504;13.480;2023-03-01T02:52:34;-0.60;99.90
51867;DHT22;52862;52.504;13.480;2023-03-01T02:55:07;-0.40;99.90
51867;DHT22;52862;52.504;13.480;2023-03-01T02:57:36;-0.40;99.90
51867;DHT22;52862;52.504;13.480;2023-03-01T03:00:06;-0.70;99.90
51867;DHT22;52862;52.504;13.480;2023-03-01T03:02:35;-0.80;99.90
51867;DHT22;52862;52.504;13.480;2023-03-01T03:05:07;-0.50;99.90
51867;DHT22;52862;52.504;13.480;2023-03-01T03:07:35;-1.20;99.90
51867;DHT22;52862;52.504;13.480;2023-03-01T03:10:03;-0.60;99.90
51867;DHT22;52862;52.504;13.480;2023-03-01T03:12:30;-0.70;99.90
51867;DHT22;52862;52.504;13.480;2023-03-01T03:14:57;-0.90;99.90
51867;DHT22;52862;52.504;13.480;2023-03-01T03:17:24;-0.60;99.90
51867;DHT22;52862;52.504;13.480;2023-03-01T03:19:51;-0.70;99.90
51867;DHT22;52862;52.504;13.480;2023-03-01T03:22:18;-0.70;99.90
51867;DHT22;52862;52.504;13.480;2023-03-01T03:24:45;-0.70;99.90
51867;DHT22;52862;52.504;13.480;2023-03-01T03:27:11;-0.70;99.90
51867;DHT22;52862;52.504;13.480;2023-03-01T03:29:38;-0.90;99.90
51867;DHT22;52862;52.504;13.480;2023-03-01T03:32:05;-0.70;99.90
51867;DHT22;52862;52.504;13.480;2023-03-01T03:34:31;0.00;99.90
51867;DHT22;52862;52.504;13.480;2023-03-01T03:36:59;-0.50;99.90
51867;DHT22;52862;52.504;13.480;2023-03-01T03:41:53;-0.40;99.90
51867;DHT22;52862;52.504;13.480;2023-03-01T03:44:19;-0.60;99.90
51867;DHT22;52862;52.504;13.480;2023-03-01T03:46:46;-0.50;99.90
51867;DHT22;52862;52.504;13.480;2023-03-01T03:49:13;-0.80;99.90
51867;DHT22;52862;52.504;13.480;2023-03-01T03:51:39;-0.80;99.90
51867;DHT22;52862;52.504;13.480;2023-03-01T03:54:07;-0.70;99.90
51867;DHT22;52862;52.504;13.480;2023-03-01T04:01:27;-1.00;99.90
51867;DHT22;52862;52.504;13.480;2023-03-01T04:03:54;-1.60;99.90
51867;DHT22;52862;52.504;13.480;2023-03-01T04:06:21;-1.10;99.90
51867;DHT22;52862;52.504;13.480;2023-03-01T04:11:26;-1.20;99.90
51867;DHT22;52862;52.504;13.480;2023-03-01T04:13:54;-1.10;99.90
51867;DHT22;52862;52.504;13.480;2023-03-01T04:16:21;-1.20;99.90
51867;DHT22;52862;52.504;13.480;2023-03-01T04:18:48;-1.20;99.90
51867;DHT22;52862;52.504;13.480;2023-03-01T04:21:14;-1.10;99.90
51867;DHT22;52862;52.504;13.480;2023-03-01T04:23:41;-1.00;99.90
51867;DHT22;52862;52.504;13.480;2023-03-01T04:28:37;-1.40;99.90
51867;DHT22;52862;52.504;13.480;2023-03-01T04:31:07;-0.80;99.90
51867;DHT22;52862;52.504;13.480;2023-03-01T04:33:40;-1.00;99.90
51867;DHT22;52862;52.504;13.480;2023-03-01T04:36:08;-1.50;99.90
51867;DHT22;52862;52.504;13.480;2023-03-01T04:38:36;-1.20;99.90
51867;DHT22;52862;52.504;13.480;2023-03-01T04:41:04;-1.20;99.90
51867;DHT22;52862;52.504;13.480;2023-03-01T04:43:30;-1.10;99.90
51867;DHT22;52862;52.504;13.480;2023-03-01T04:46:01;-1.30;99.90
51867;DHT22;52862;52.504;13.480;2023-03-01T05:03:12;-1.30;99.90
51867;DHT22;52862;52.504;13.480;2023-03-01T05:05:45;-1.40;99.90
51867;DHT22;52862;52.504;13.480;2023-03-01T05:10:44;-1.40;99.90
51867;DHT22;52862;52.504;13.480;2023-03-01T05:13:12;-1.50;99.90
51867;DHT22;52862;52.504;13.480;2023-03-01T05:15:41;-1.00;99.90
51867;DHT22;52862;52.504;13.480;2023-03-01T05:20:38;-0.90;99.90
51867;DHT22;52862;52.504;13.480;2023-03-01T05:23:04;-1.10;99.90
51867;DHT22;52862;52.504;13.480;2023-03-01T05:25:32;-1.40;99.90
51867;DHT22;52862;52.504;13.480;2023-03-01T05:28:00;-1.20;99.90
51867;DHT22;52862;52.504;13.480;2023-03-01T05:30:30;-1.30;99.90
51867;DHT22;52862;52.504;13.480;2023-03-01T05:32:57;-1.20;99.90
51867;DHT22;52862;52.504;13.480;2023-03-01T05:35:24;-0.90;99.90
51867;DHT22;52862;52.504;13.480;2023-03-01T05:37:53;-0.60;99.90
51867;DHT22;52862;52.504;13.480;2023-03-01T05:40:21;-1.00;99.90
51867;DHT22;52862;52.504;13.480;2023-03-01T05:42:51;-1.30;99.90
51867;DHT22;52862;52.504;13.480;2023-03-01T05:47:46;-1.30;99.90
51867;DHT22;52862;52.504;13.480;2023-03-01T05:50:15;-1.40;99.90
51867;DHT22;52862;52.504;13.480;2023-03-01T05:52:45;-1.30;99.90
51867;DHT22;52862;52.504;13.480;2023-03-01T05:55:13;-1.30;99.90
51867;DHT22;52862;52.504;13.480;2023-03-01T05:57:40;-1.30;99.90
51867;DHT22;52862;52.504;13.480;2023-03-01T06:00:08;-2.50;99.90
51867;DHT22;52862;52.504;13.480;2023-03-01T06:05:02;-1.20;99.90
51867;DHT22;52862;52.504;13.480;2023-03-01T06:09:56;-1.00;99.90
51867;DHT22;52862;52.504;13.480;2023-03-01T06:12:23;-1.20;99.90
51867;DHT22;52862;52.504;13.480;2023-03-01T06:14:50;-1.00;99.90
51867;DHT22;52862;52.504;13.480;2023-03-01T06:19:43;-0.90;99.90
51867;DHT22;52862;52.504;13.480;2023-03-01T06:22:10;-1.20;99.90
51867;DHT22;52862;52.504;13.480;2023-03-01T06:24:36;-1.10;99.90
51867;DHT22;52862;52.504;13.480;2023-03-01T06:27:03;-1.20;99.90
51867;DHT22;52862;52.504;13.480;2023-03-01T06:29:31;-0.90;99.90
51867;DHT22;52862;52.504;13.480;2023-03-01T06:31:57;-0.90;99.90
51867;DHT22;52862;52.504;13.480;2023-03-01T06:39:18;-0.90;99.90
51867;DHT22;52862;52.504;13.480;2023-03-01T06:41:45;-1.10;99.90
51867;DHT22;52862;52.504;13.480;2023-03-01T06:44:12;-0.70;99.90
51867;DHT22;52862;52.504;13.480;2023-03-01T06:46:39;-0.70;99.90
51867;DHT22;52862;52.504;13.480;2023-03-01T06:49:06;-0.70;99.90
51867;DHT22;52862;52.504;13.480;2023-03-01T06:51:35;-0.40;99.90
51867;DHT22;52862;52.504;13.480;2023-03-01T06:54:03;-0.50;99.90
51867;DHT22;52862;52.504;13.480;2023-03-01T06:56:30;-0.50;99.90
51867;DHT22;52862;52.504;13.480;2023-03-01T06:58:57;-0.30;99.90
51867;DHT22;52862;52.504;13.480;2023-03-01T07:01:24;-0.50;99.90
51867;DHT22;52862;52.504;13.480;2023-03-01T07:03:51;-0.20;99.90
51867;DHT22;52862;52.504;13.480;2023-03-01T07:06:18;0.30;99.90
51867;DHT22;52862;52.504;13.480;2023-03-01T07:08:45;0.00;99.90
51867;DHT22;52862;52.504;13.480;2023-03-01T07:11:12;0.20;99.90
51867;DHT22;52862;52.504;13.480;2023-03-01T07:13:39;0.30;99.90
51867;DHT22;52862;52.504;13.480;2023-03-01T07:16:07;0.40;99.90
51867;DHT22;52862;52.504;13.480;2023-03-01T07:18:33;0.80;99.90
51867;DHT22;52862;52.504;13.480;2023-03-01T07:21:05;1.20;99.90
51867;DHT22;52862;52.504;13.480;2023-03-01T07:23:32;0.70;99.90
51867;DHT22;52862;52.504;13.480;2023-03-01T07:25:59;0.90;99.90
51867;DHT22;52862;52.504;13.480;2023-03-01T07:28:26;1.00;99.90
51867;DHT22;52862;52.504;13.480;2023-03-01T07:30:53;1.60;99.90
51867;DHT22;52862;52.504;13.480;2023-03-01T07:33:21;1.60;99.90
51867;DHT22;52862;52.504;13.480;2023-03-01T07:35:48;1.60;99.90
51867;DHT22;52862;52.504;13.480;2023-03-01T07:38:15;1.60;99.90
51867;DHT22;52862;52.504;13.480;2023-03-01T07:40:42;1.80;99.90
51867;DHT22;52862;52.504;13.480;2023-03-01T07:43:09;2.00;99.90
51867;DHT22;52862;52.504;13.480;2023-03-01T07:45:35;2.10;99.90
51867;DHT22;52862;52.504;13.480;2023-03-01T07:48:02;2.40;99.90
51867;DHT22;52862;52.504;13.480;2023-03-01T07:50:29;2.40;99.90
51867;DHT22;52862;52.504;13.480;2023-03-01T07:52:56;2.60;99.90
51867;DHT22;52862;52.504;13.480;2023-03-01T07:55:23;2.70;99.90
51867;DHT22;52862;52.504;13.480;2023-03-01T08:00:17;3.10;99.90
51867;DHT22;52862;52.504;13.480;2023-03-01T08:02:44;3.10;99.90
51867;DHT22;52862;52.504;13.480;2023-03-01T08:05:11;3.30;99.90
51867;DHT22;52862;52.504;13.480;2023-03-01T08:07:38;3.30;99.90
51867;DHT22;52862;52.504;13.480;2023-03-01T08:10:05;3.30;99.90
51867;DHT22;52862;52.504;13.480;2023-03-01T08:12:33;3.40;99.90
51867;DHT22;52862;52.504;13.480;2023-03-01T08:14:59;3.60;99.90
51867;DHT22;52862;52.504;13.480;2023-03-01T08:17:26;3.60;99.90
51867;DHT22;52862;52.504;13.480;2023-03-01T08:19:53;3.60;99.90
51867;DHT22;52862;52.504;13.480;2023-03-01T08:22:19;3.70;99.90
51867;DHT22;52862;52.504;13.480;2023-03-01T08:24:46;3.70;99.90
51867;DHT22;52862;52.504;13.480;2023-03-01T08:27:15;3.90;99.90
51867;DHT22;52862;52.504;13.480;2023-03-01T08:29:42;4.10;99.90
51867;DHT22;52862;52.504;13.480;2023-03-01T08:32:09;3.90;99.90
51867;DHT22;52862;52.504;13.480;2023-03-01T08:34:36;4.40;99.90
51867;DHT22;52862;52.504;13.480;2023-03-01T08:37:02;4.50;99.90
51867;DHT22;52862;52.504;13.480;2023-03-01T08:39:29;4.60;99.90
51867;DHT22;52862;52.504;13.480;2023-03-01T08:41:57;4.70;99.90
51867;DHT22;52862;52.504;13.480;2023-03-01T08:44:24;4.70;99.90
51867;DHT22;52862;52.504;13.480;2023-03-01T08:46:51;4.90;99.90
51867;DHT22;52862;52.504;13.480;2023-03-01T08:49:19;4.90;99.90
51867;DHT22;52862;52.504;13.480;2023-03-01T08:51:47;4.90;99.90
51867;DHT22;52862;52.504;13.480;2023-03-01T08:54:16;4.90;99.90
51867;DHT22;52862;52.504;13.480;2023-03-01T08:56:44;5.00;99.90
51867;DHT22;52862;52.504;13.480;2023-03-01T08:59:12;4.90;99.90
51867;DHT22;52862;52.504;13.480;2023-03-01T09:01:39;4.80;99.90
51867;DHT22;52862;52.504;13.480;2023-03-01T09:04:10;5.40;99.90
51867;DHT22;52862;52.504;13.480;2023-03-01T09:06:37;5.50;99.90
51867;DHT22;52862;52.504;13.480;2023-03-01T09:09:04;5.70;99.90
51867;DHT22;52862;52.504;13.480;2023-03-01T09:11:31;5.90;99.90
51867;DHT22;52862;52.504;13.480;2023-03-01T09:13:59;5.70;99.90
51867;DHT22;52862;52.504;13.480;2023-03-01T09:16:26;5.60;99.90
51867;DHT22;52862;52.504;13.480;2023-03-01T09:18:54;5.70;99.90
51867;DHT22;52862;52.504;13.480;2023-03-01T09:21:22;6.00;99.90
51867;DHT22;52862;52.504;13.480;2023-03-01T09:24:06;6.20;99.90
51867;DHT22;52862;52.504;13.480;2023-03-01T09:26:33;6.30;99.90
51867;DHT22;52862;52.504;13.480;2023-03-01T09:29:00;6.30;99.90
51867;DHT22;52862;52.504;13.480;2023-03-01T09:31:26;6.60;99.90
51867;DHT22;52862;52.504;13.480;2023-03-01T09:33:53;6.70;99.90
51867;DHT22;52862;52.504;13.480;2023-03-01T09:36:24;6.70;99.90
51867;DHT22;52862;52.504;13.480;2023-03-01T09:38:51;7.10;99.90
51867;DHT22;52862;52.504;13.480;2023-03-01T09:41:30;7.00;99.90
51867;DHT22;52862;52.504;13.480;2023-03-01T09:44:04;6.80;99.90
51867;DHT22;52862;52.504;13.480;2023-03-01T09:46:42;6.70;99.90
51867;DHT22;52862;52.504;13.480;2023-03-01T09:49:12;6.60;99.90
51867;DHT22;52862;52.504;13.480;2023-03-01T09:51:56;6.60;99.90
51867;DHT22;52862;52.504;13.480;2023-03-01T09:54:23;6.60;99.90
51867;DHT22;52862;52.504;13.480;2023-03-01T09:57:03;6.40;99.90
51867;DHT22;52862;52.504;13.480;2023-03-01T09:59:38;6.50;99.90
51867;DHT22;52862;52.504;13.480;2023-03-01T10:02:23;6.60;99.90
51867;DHT22;52862;52.504;13.480;2023-03-01T10:04:51;6.80;99.90
51867;DHT22;52862;52.504;13.480;2023-03-01T10:07:27;7.10;99.90
51867;DHT22;52862;52.504;13.480;2023-03-01T10:09:54;7.30;99.90
51867;DHT22;52862;52.504;13.480;2023-03-01T10:12:25;7.40;99.90
51867;DHT22;52862;52.504;13.480;2023-03-01T10:14:57;7.40;99.30
51867;DHT22;52862;52.504;13.480;2023-03-01T10:17:32;7.50;99.20
51867;DHT22;52862;52.504;13.480;2023-03-01T10:20:17;7.70;99.30
51867;DHT22;52862;52.504;13.480;2023-03-01T10:22:44;7.60;99.00
51867;DHT22;52862;52.504;13.480;2023-03-01T10:25:24;7.50;99.20
51867;DHT22;52862;52.504;13.480;2023-03-01T10:27:56;7.20;99.60
51867;DHT22;52862;52.504;13.480;2023-03-01T10:30:32;7.10;99.80
51867;DHT22;52862;52.504;13.480;2023-03-01T10:33:01;7.10;99.90
51867;DHT22;52862;52.504;13.480;2023-03-01T10:35:33;7.40;99.90
51867;DHT22;52862;52.504;13.480;2023-03-01T10:38:05;7.10;99.80
51867;DHT22;52862;52.504;13.480;2023-03-01T10:40:32;7.30;99.90
51867;DHT22;52862;52.504;13.480;2023-03-01T10:43:01;7.10;99.60
51867;DHT22;52862;52.504;13.480;2023-03-01T10:45:34;7.10;99.70
51867;DHT22;52862;52.504;13.480;2023-03-01T10:48:08;7.30;99.60
51867;DHT22;52862;52.504;13.480;2023-03-01T10:50:38;7.30;98.90
51867;DHT22;52862;52.504;13.480;2023-03-01T10:53:24;7.20;98.20
51867;DHT22;52862;52.504;13.480;2023-03-01T10:56:04;7.60;97.40
51867;DHT22;52862;52.504;13.480;2023-03-01T10:58:32;7.60;97.50
51867;DHT22;52862;52.504;13.480;2023-03-01T11:01:01;7.30;95.70
51867;DHT22;52862;52.504;13.480;2023-03-01T11:03:29;7.30;95.90
51867;DHT22;52862;52.504;13.480;2023-03-01T11:06:03;7.30;94.90
51867;DHT22;52862;52.504;13.480;2023-03-01T11:08:34;7.80;95.10
51867;DHT22;52862;52.504;13.480;2023-03-01T11:11:19;7.20;95.40
51867;DHT22;52862;52.504;13.480;2023-03-01T11:13:53;7.00;94.50
51867;DHT22;52862;52.504;13.480;2023-03-01T11:16:26;6.70;94.90
51867;DHT22;52862;52.504;13.480;2023-03-01T11:19:00;6.90;95.50
51867;DHT22;52862;52.504;13.480;2023-03-01T11:21:29;7.00;95.50
51867;DHT22;52862;52.504;13.480;2023-03-01T11:24:00;7.10;95.10
51867;DHT22;52862;52.504;13.480;2023-03-01T11:26:28;7.40;95.20
51867;DHT22;52862;52.504;13.480;2023-03-01T11:29:02;7.30;95.00
51867;DHT22;52862;52.504;13.480;2023-03-01T11:31:30;10.20;95.30
51867;DHT22;52862;52.504;13.480;2023-03-01T11:34:03;7.70;91.40
51867;DHT22;52862;52.504;13.480;2023-03-01T11:36:35;7.20;93.50
51867;DHT22;52862;52.504;13.480;2023-03-01T11:39:16;7.30;93.90
51867;DHT22;52862;52.504;13.480;2023-03-01T11:41:48;7.50;93.10
51867;DHT22;52862;52.504;13.480;2023-03-01T11:44:21;7.40;93.20
51867;DHT22;52862;52.504;13.480;2023-03-01T11:47:10;7.30;93.90
51867;DHT22;52862;52.504;13.480;2023-03-01T11:50:01;8.80;94.30
51867;DHT22;52862;52.504;13.480;2023-03-01T11:52:40;7.40;93.60
51867;DHT22;52862;52.504;13.480;2023-03-01T11:55:31;7.70;93.30
51867;DHT22;52862;52.504;13.480;2023-03-01T11:58:17;7.60;90.70
51867;DHT22;52862;52.504;13.480;2023-03-01T12:01:01;7.60;90.70
51867;DHT22;52862;52.504;13.480;2023-03-01T12:03:42;7.30;90.20
51867;DHT22;52862;52.504;13.480;2023-03-01T12:06:50;7.80;90.30
51867;DHT22;52862;52.504;13.480;2023-03-01T12:09:31;8.00;90.20
51867;DHT22;52862;52.504;13.480;2023-03-01T12:12:28;8.10;88.60
51867;DHT22;52862;52.504;13.480;2023-03-01T12:15:09;8.00;88.90
51867;DHT22;52862;52.504;13.480;2023-03-01T12:17:54;8.00;88.90
51867;DHT22;52862;52.504;13.480;2023-03-01T12:20:29;8.10;86.20
51867;DHT22;52862;52.504;13.480;2023-03-01T12:23:15;8.10;84.30
51867;DHT22;52862;52.504;13.480;2023-03-01T12:25:54;8.30;84.00
51867;DHT22;52862;52.504;13.480;2023-03-01T12:28:39;8.50;84.00
51867;DHT22;52862;52.504;13.480;2023-03-01T12:31:35;8.60;84.70
51867;DHT22;52862;52.504;13.480;2023-03-01T12:34:11;8.50;83.50
51867;DHT22;52862;52.504;13.480;2023-03-01T12:39:40;8.50;83.80
51867;DHT22;52862;52.504;13.480;2023-03-01T12:42:15;8.70;83.60
51867;DHT22;52862;52.504;13.480;2023-03-01T12:47:56;8.80;83.20
51867;DHT22;52862;52.504;13.480;2023-03-01T12:50:37;8.90;81.50
51867;DHT22;52862;52.504;13.480;2023-03-01T12:53:05;9.10;80.10
51867;DHT22;52862;52.504;13.480;2023-03-01T12:55:35;10.80;75.40
51867;DHT22;52862;52.504;13.480;2023-03-01T12:58:10;15.70;61.30
51867;DHT22;52862;52.504;13.480;2023-03-01T13:00:59;19.40;51.00
51867;DHT22;52862;52.504;13.480;2023-03-01T13:03:36;23.20;43.50
51867;DHT22;52862;52.504;13.480;2023-03-01T13:06:11;24.20;37.60
51867;DHT22;52862;52.504;13.480;2023-03-01T13:08:44;25.40;36.60
51867;DHT22;52862;52.504;13.480;2023-03-01T13:11:17;23.90;34.70
51867;DHT22;52862;52.504;13.480;2023-03-01T13:13:45;22.80;35.40
51867;DHT22;52862;52.504;13.480;2023-03-01T13:16:39;22.90;35.60
51867;DHT22;52862;52.504;13.480;2023-03-01T13:19:13;23.30;33.90
51867;DHT22;52862;52.504;13.480;2023-03-01T13:21:42;23.90;32.60
51867;DHT22;52862;52.504;13.480;2023-03-01T13:24:29;25.20;32.00
51867;DHT22;52862;52.504;13.480;2023-03-01T13:27:26;27.00;31.50
51867;DHT22;52862;52.504;13.480;2023-03-01T13:29:56;26.70;31.10
51867;DHT22;52862;52.504;13.480;2023-03-01T13:32:27;26.00;32.10
51867;DHT22;52862;52.504;13.480;2023-03-01T13:35:43;25.30;32.70
51867;DHT22;52862;52.504;13.480;2023-03-01T13:38:38;25.80;33.70
51867;DHT22;52862;52.504;13.480;2023-03-01T13:41:05;24.70;34.00
51867;DHT22;52862;52.504;13.480;2023-03-01T13:43:34;22.50;35.10
51867;DHT22;52862;52.504;13.480;2023-03-01T13:46:08;21.90;37.00
51867;DHT22;52862;52.504;13.480;2023-03-01T13:48:38;22.70;35.80
51867;DHT22;52862;52.504;13.480;2023-03-01T13:51:09;23.70;35.30
51867;DHT22;52862;52.504;13.480;2023-03-01T13:53:40;24.00;34.80
51867;DHT22;52862;52.504;13.480;2023-03-01T13:56:09;23.90;34.10
51867;DHT22;52862;52.504;13.480;2023-03-01T13:58:46;22.90;35.50
51867;DHT22;52862;52.504;13.480;2023-03-01T14:01:21;25.20;34.20
51867;DHT22;52862;52.504;13.480;2023-03-01T14:03:49;24.20;33.60
51867;DHT22;52862;52.504;13.480;2023-03-01T14:06:20;25.80;33.40
51867;DHT22;52862;52.504;13.480;2023-03-01T14:08:49;26.70;32.10
51867;DHT22;52862;52.504;13.480;2023-03-01T14:11:49;27.20;31.80
51867;DHT22;52862;52.504;13.480;2023-03-01T14:14:42;26.30;32.00
51867;DHT22;52862;52.504;13.480;2023-03-01T14:17:26;25.70;32.60
51867;DHT22;52862;52.504;13.480;2023-03-01T14:19:58;26.80;32.70
51867;DHT22;52862;52.504;13.480;2023-03-01T14:22:27;27.40;32.10
51867;DHT22;52862;52.504;13.480;2023-03-01T14:24:57;26.40;31.40
51867;DHT22;52862;52.504;13.480;2023-03-01T14:27:27;26.50;32.40
51867;DHT22;52862;52.504;13.480;2023-03-01T14:29:56;27.00;31.80
51867;DHT22;52862;52.504;13.480;2023-03-01T14:32:25;27.10;31.60
51867;DHT22;52862;52.504;13.480;2023-03-01T14:34:53;26.50;32.10
51867;DHT22;52862;52.504;13.480;2023-03-01T14:37:23;26.00;32.10
51867;DHT22;52862;52.504;13.480;2023-03-01T14:39:51;25.90;32.20
51867;DHT22;52862;52.504;13.480;2023-03-01T14:42:18;26.20;32.90
51867;DHT22;52862;52.504;13.480;2023-03-01T14:44:48;25.00;33.10
51867;DHT22;52862;52.504;13.480;2023-03-01T14:47:23;23.40;34.80
51867;DHT22;52862;52.504;13.480;2023-03-01T14:49:56;19.90;38.10
51867;DHT22;52862;52.504;13.480;2023-03-01T14:52:31;16.60;43.10
51867;DHT22;52862;52.504;13.480;2023-03-01T14:55:00;13.90;47.10
51867;DHT22;52862;52.504;13.480;2023-03-01T14:57:27;12.20;50.60
51867;DHT22;52862;52.504;13.480;2023-03-01T14:59:57;11.00;53.60
51867;DHT22;52862;52.504;13.480;2023-03-01T15:02:26;10.40;55.60
51867;DHT22;52862;52.504;13.480;2023-03-01T15:04:55;10.10;56.80
51867;DHT22;52862;52.504;13.480;2023-03-01T15:07:28;9.70;57.90
51867;DHT22;52862;52.504;13.480;2023-03-01T15:09:56;9.70;59.20
51867;DHT22;52862;52.504;13.480;2023-03-01T15:12:37;9.20;60.60
51867;DHT22;52862;52.504;13.480;2023-03-01T15:15:31;9.00;61.80
51867;DHT22;52862;52.504;13.480;2023-03-01T15:18:00;8.80;62.60
51867;DHT22;52862;52.504;13.480;2023-03-01T15:20:28;8.80;62.60
51867;DHT22;52862;52.504;13.480;2023-03-01T15:22:57;8.70;62.80
51867;DHT22;52862;52.504;13.480;2023-03-01T15:25:25;8.60;63.50
51867;DHT22;52862;52.504;13.480;2023-03-01T15:27:54;8.70;64.10
51867;DHT22;52862;52.504;13.480;2023-03-01T15:30:23;8.50;63.50
51867;DHT22;52862;52.504;13.480;2023-03-01T15:33:27;8.50;64.70
51867;DHT22;52862;52.504;13.480;2023-03-01T15:35:55;8.50;66.00
51867;DHT22;52862;52.504;13.480;2023-03-01T15:38:28;8.40;67.10
51867;DHT22;52862;52.504;13.480;2023-03-01T15:40:57;8.40;66.90
51867;DHT22;52862;52.504;13.480;2023-03-01T15:43:44;8.40;67.90
51867;DHT22;52862;52.504;13.480;2023-03-01T15:46:21;8.30;67.90
51867;DHT22;52862;52.504;13.480;2023-03-01T15:48:51;8.20;68.30
51867;DHT22;52862;52.504;13.480;2023-03-01T15:51:23;8.20;68.70
51867;DHT22;52862;52.504;13.480;2023-03-01T15:53:55;8.10;68.90
51867;DHT22;52862;52.504;13.480;2023-03-01T15:56:24;8.10;69.10
51867;DHT22;52862;52.504;13.480;2023-03-01T15:58:51;8.00;69.60
51867;DHT22;52862;52.504;13.480;2023-03-01T16:01:17;8.00;69.80
51867;DHT22;52862;52.504;13.480;2023-03-01T16:03:45;8.00;70.00
51867;DHT22;52862;52.504;13.480;2023-03-01T16:06:12;8.00;70.10
51867;DHT22;52862;52.504;13.480;2023-03-01T16:08:40;7.90;70.30
51867;DHT22;52862;52.504;13.480;2023-03-01T16:11:14;7.90;71.00
51867;DHT22;52862;52.504;13.480;2023-03-01T16:13:42;8.00;72.10
51867;DHT22;52862;52.504;13.480;2023-03-01T16:16:10;7.80;72.40
51867;DHT22;52862;52.504;13.480;2023-03-01T16:18:38;7.70;72.40
51867;DHT22;52862;52.504;13.480;2023-03-01T16:21:05;7.60;72.90
51867;DHT22;52862;52.504;13.480;2023-03-01T16:23:32;7.60;73.60
51867;DHT22;52862;52.504;13.480;2023-03-01T16:26:00;7.60;73.90
51867;DHT22;52862;52.504;13.480;2023-03-01T16:28:27;7.50;74.40
51867;DHT22;52862;52.504;13.480;2023-03-01T16:30:56;7.60;74.80
51867;DHT22;52862;52.504;13.480;2023-03-01T16:33:23;7.50;75.40
51867;DHT22;52862;52.504;13.480;2023-03-01T16:36:00;7.40;89.60
51867;DHT22;52862;52.504;13.480;2023-03-01T16:38:29;7.30;76.60
51867;DHT22;52862;52.504;13.480;2023-03-01T16:40:57;7.30;77.00
51867;DHT22;52862;52.504;13.480;2023-03-01T16:43:24;7.20;77.50
51867;DHT22;52862;52.504;13.480;2023-03-01T16:45:51;7.20;78.20
51867;DHT22;52862;52.504;13.480;2023-03-01T16:48:18;7.10;79.10
51867;DHT22;52862;52.504;13.480;2023-03-01T16:50:45;7.00;79.90
51867;DHT22;52862;52.504;13.480;2023-03-01T16:53:12;6.90;81.30